Time;durP1;ratioP1;P1;durP2;ratioP2;P2;SDS_P1;SDS_P2;PMS_P1;PMS_P2;Temp;Humidity;BMP_temperature;BMP_pressure;BME280_temperature;BME280_humidity;BME280_pressure;Samples;Min_cycle;Max_cycle;Signal;HPM_P1;HPM_P2
2023/02/18 00:00:58;;;;;;;0.40;0.40;;;;;;;2.84;71.08;97641.19;5024970;28;20486;-55
2023/02/18 00:03:27;;;;;;;0.40;0.40;;;;;;;2.81;71.44;97633.56;5025934;28;20107;-55
2023/02/18 00:05:54;;;;;;;0.40;0.40;;;;;;;2.62;72.11;97634.84;5025798;28;20543;-56
2023/02/18 00:08:21;;;;;;;0.40;0.40;;;;;;;2.59;71.72;97629.97;5026391;28;20148;-55
2023/02/18 00:10:48;;;;;;;0.40;0.40;;;;;;;2.66;71.97;97613.94;5025159;28;20340;-54
2023/02/18 00:13:14;;;;;;;0.40;0.40;;;;;;;2.92;70.89;97628.72;5025799;28;20111;-56
2023/02/18 00:15:41;;;;;;;0.40;0.40;;;;;;;2.70;70.31;97632.16;5024133;28;20584;-56
2023/02/18 00:18:08;;;;;;;0.40;0.40;;;;;;;2.68;70.24;97628.13;5026098;28;20090;-56
2023/02/18 00:20:38;;;;;;;0.40;0.40;;;;;;;2.01;71.02;97574.28;5010193;28;20045;-56
2023/02/18 00:23:04;;;;;;;0.40;0.40;;;;;;;2.41;71.41;97617.22;5026242;28;20107;-56
2023/02/18 00:25:31;;;;;;;0.35;0.35;;;;;;;2.28;71.59;97577.00;5023905;28;20099;-55
2023/02/18 00:27:57;;;;;;;0.40;0.40;;;;;;;2.50;71.36;97605.25;5024505;28;20445;-54
2023/02/18 00:30:24;;;;;;;0.40;0.40;;;;;;;2.55;71.85;97596.13;5025823;28;20049;-56
2023/02/18 00:32:51;;;;;;;0.40;0.40;;;;;;;2.61;71.90;97598.47;5025329;28;20053;-56
2023/02/18 00:35:17;;;;;;;0.38;0.38;;;;;;;2.51;71.64;97573.28;5025766;28;20103;-56
2023/02/18 00:37:44;;;;;;;0.40;0.40;;;;;;;2.58;71.70;97596.34;5025097;28;20049;-56
2023/02/18 00:40:11;;;;;;;0.40;0.40;;;;;;;2.59;71.83;97597.94;5025633;28;20049;-57
2023/02/18 00:42:37;;;;;;;0.40;0.40;;;;;;;2.61;71.51;97603.94;5024951;28;20103;-56
2023/02/18 00:45:04;;;;;;;0.40;0.40;;;;;;;2.17;71.30;97529.97;5025153;28;20132;-54
2023/02/18 00:47:31;;;;;;;0.40;0.40;;;;;;;2.40;71.64;97594.53;5025705;28;20060;-56
2023/02/18 00:49:57;;;;;;;0.40;0.40;;;;;;;2.38;72.26;97585.03;5025151;28;20496;-54
2023/02/18 00:52:24;;;;;;;0.40;0.40;;;;;;;2.43;72.75;97591.22;5025115;28;20107;-55
2023/02/18 00:54:51;;;;;;;0.40;0.40;;;;;;;2.47;72.53;97583.19;5025573;28;20137;-54
2023/02/18 00:57:17;;;;;;;0.30;0.30;;;;;;;2.27;72.66;97539.88;5024487;28;20092;-56
2023/02/18 00:59:44;;;;;;;0.47;0.47;;;;;;;2.44;72.77;97589.25;5024990;28;20061;-54
2023/02/18 01:02:10;;;;;;;0.40;0.40;;;;;;;2.34;72.21;97552.00;5024336;28;20533;-56
2023/02/18 01:04:37;;;;;;;0.40;0.40;;;;;;;2.46;72.40;97560.53;5025039;28;20445;-56
2023/02/18 01:07:04;;;;;;;0.30;0.30;;;;;;;2.30;73.10;97540.09;5024380;28;20072;-54
2023/02/18 01:09:30;;;;;;;0.40;0.40;;;;;;;2.42;72.83;97572.38;5005579;28;20093;-56
2023/02/18 01:11:57;;;;;;;0.40;0.40;;;;;;;2.49;73.31;97586.44;5005412;28;20554;-56
2023/02/18 01:14:23;;;;;;;0.30;0.30;;;;;;;1.79;73.62;97494.97;5005441;28;20077;-54
2023/02/18 01:16:50;;;;;;;0.40;0.40;;;;;;;2.42;72.67;97564.19;5022255;28;20057;-55
2023/02/18 01:19:17;;;;;;;0.38;0.38;;;;;;;1.90;73.47;97491.72;5024803;28;20041;-55
2023/02/18 01:21:43;;;;;;;0.30;0.30;;;;;;;2.30;72.56;97525.59;5025252;28;20053;-55
2023/02/18 01:24:10;;;;;;;0.40;0.40;;;;;;;2.55;72.72;97563.31;5024922;28;20053;-56
2023/02/18 01:26:36;;;;;;;0.40;0.40;;;;;;;2.22;73.11;97570.03;5016387;28;20087;-56
2023/02/18 01:29:03;;;;;;;0.30;0.30;;;;;;;2.18;73.13;97549.91;5024736;28;20053;-56
2023/02/18 01:31:30;;;;;;;0.30;0.30;;;;;;;2.03;73.14;97533.81;5024133;28;20053;-54
2023/02/18 01:33:57;;;;;;;0.40;0.40;;;;;;;2.07;73.25;97540.31;5024497;28;20057;-55
2023/02/18 01:36:23;;;;;;;0.32;0.32;;;;;;;1.80;73.70;97485.66;5024803;28;20057;-55
2023/02/18 01:38:50;;;;;;;0.30;0.30;;;;;;;2.27;73.29;97550.81;5024400;28;20085;-54
2023/02/18 01:41:16;;;;;;;0.40;0.40;;;;;;;2.19;73.58;97526.91;5023633;28;20069;-55
2023/02/18 01:43:43;;;;;;;0.40;0.40;;;;;;;2.18;74.39;97536.25;5024313;28;20057;-54
2023/02/18 01:46:10;;;;;;;0.30;0.30;;;;;;;2.28;73.44;97534.09;5023147;28;20053;-57
2023/02/18 01:48:57;;;;;;;0.30;0.30;;;;;;;2.25;73.48;97536.63;5022527;28;20609;-54
2023/02/18 01:51:37;;;;;;;0.40;0.40;;;;;;;2.22;73.28;97531.78;5023414;28;20073;-56
2023/02/18 01:54:10;;;;;;;0.30;0.30;;;;;;;1.95;72.75;97499.00;5024182;28;20497;-54
2023/02/18 01:56:43;;;;;;;0.30;0.30;;;;;;;2.24;73.28;97535.03;5024400;28;20084;-56
2023/02/18 01:59:18;;;;;;;0.40;0.40;;;;;;;2.16;73.28;97538.47;5024077;28;20056;-56
2023/02/18 02:01:45;;;;;;;0.30;0.30;;;;;;;2.18;73.37;97536.25;5023071;28;20138;-57
2023/02/18 02:04:12;;;;;;;0.40;0.40;;;;;;;2.18;73.53;97536.25;5021841;28;20057;-56
2023/02/18 02:06:39;;;;;;;0.40;0.40;;;;;;;1.61;73.23;97450.28;5023927;28;20107;-57
2023/02/18 02:09:10;;;;;;;0.40;0.40;;;;;;;2.06;73.52;97511.34;5021867;28;20042;-56
2023/02/18 02:12:04;;;;;;;0.40;0.40;;;;;;;2.19;73.51;97532.38;5023604;28;20471;-56
2023/02/18 02:14:46;;;;;;;0.40;0.40;;;;;;;2.13;73.57;97536.34;5023684;28;20163;-56
2023/02/18 02:17:15;;;;;;;0.30;0.30;;;;;;;2.02;73.79;97527.56;5023677;28;20049;-54
2023/02/18 02:19:54;;;;;;;0.30;0.30;;;;;;;2.14;73.30;97535.22;5024247;28;20057;-54
2023/02/18 02:22:30;;;;;;;0.40;0.40;;;;;;;2.07;73.89;97532.09;5023332;28;20559;-54
2023/02/18 02:24:56;;;;;;;0.38;0.38;;;;;;;1.97;74.96;97529.56;5023469;28;20116;-56
2023/02/18 02:28:08;;;;;;;0.30;0.30;;;;;;;2.07;74.52;97541.09;5021965;28;20053;-56
2023/02/18 02:30:53;;;;;;;0.40;0.40;;;;;;;2.05;74.59;97526.13;5023161;28;20049;-56
2023/02/18 02:33:47;;;;;;;0.40;0.40;;;;;;;2.07;74.38;97540.31;5023509;28;20068;-53
2023/02/18 02:36:20;;;;;;;0.35;0.35;;;;;;;2.14;74.33;97522.38;5020958;28;20084;-57
2023/02/18 02:38:58;;;;;;;0.40;0.40;;;;;;;2.03;74.42;97517.41;5023274;28;20061;-56
2023/02/18 02:41:51;;;;;;;0.40;0.40;;;;;;;2.09;73.79;97521.66;5023568;28;20567;-55
2023/02/18 02:44:38;;;;;;;0.40;0.40;;;;;;;1.73;73.56;97456.03;5023197;28;20516;-56
2023/02/18 02:47:13;;;;;;;0.40;0.40;;;;;;;1.98;73.82;97492.94;5024129;28;20053;-53
2023/02/18 02:50:15;;;;;;;0.40;0.40;;;;;;;1.85;74.65;97501.97;5022794;28;20081;-54
2023/02/18 02:52:49;;;;;;;0.30;0.30;;;;;;;1.82;75.09;97492.44;5023613;28;20103;-53
2023/02/18 02:55:16;;;;;;;0.38;0.38;;;;;;;1.69;75.00;97467.88;5023508;28;20527;-55
2023/02/18 02:57:46;;;;;;;0.38;0.38;;;;;;;2.04;75.24;97502.66;5020245;28;20532;-53
2023/02/18 03:00:16;;;;;;;0.40;0.40;;;;;;;2.22;73.63;97540.78;5021910;28;20505;-56
2023/02/18 03:03:05;;;;;;;0.40;0.40;;;;;;;2.32;73.04;97518.72;5022299;28;20087;-55
2023/02/18 03:05:53;;;;;;;0.30;0.30;;;;;;;2.34;72.37;97507.50;5023651;28;20052;-55
2023/02/18 03:08:38;;;;;;;0.40;0.40;;;;;;;2.31;72.82;97519.03;5022890;28;20049;-56
2023/02/18 03:11:14;;;;;;;0.40;0.40;;;;;;;2.21;73.54;97508.31;5023698;28;20146;-56
2023/02/18 03:13:57;;;;;;;0.40;0.40;;;;;;;2.08;74.46;97525.50;5021173;28;20089;-55
2023/02/18 03:16:44;;;;;;;0.40;0.40;;;;;;;2.09;74.35;97518.94;5025780;28;20057;-55
2023/02/18 03:19:31;;;;;;;0.30;0.30;;;;;;;1.67;75.00;97464.63;5027367;28;20053;-53
2023/02/18 03:22:16;;;;;;;0.30;0.30;;;;;;;1.86;74.87;97495.38;5026739;28;20568;-55
2023/02/18 03:24:46;;;;;;;0.30;0.30;;;;;;;1.58;75.49;97457.13;5024927;28;20049;-53
2023/02/18 03:27:20;;;;;;;0.30;0.30;;;;;;;2.10;74.53;97528.75;5027145;28;20045;-56
2023/02/18 03:29:55;;;;;;;0.40;0.40;;;;;;;1.74;74.51;97456.84;5027030;28;20050;-53
2023/02/18 03:32:24;;;;;;;0.35;0.35;;;;;;;2.24;73.31;97524.09;5026179;28;20543;-57
2023/02/18 03:34:56;;;;;;;0.30;0.30;;;;;;;2.07;74.07;97491.13;5025236;28;20107;-53
2023/02/18 03:37:23;;;;;;;0.30;0.30;;;;;;;1.96;73.21;97479.56;5027275;28;20089;-53
2023/02/18 03:39:56;;;;;;;0.30;0.30;;;;;;;2.05;74.42;97520.66;5026109;28;20614;-54
2023/02/18 03:42:26;;;;;;;0.30;0.30;;;;;;;2.02;73.53;97504.88;5026945;28;20075;-55
2023/02/18 03:44:53;;;;;;;0.40;0.40;;;;;;;1.88;74.34;97495.88;5026120;28;20061;-54
2023/02/18 03:47:20;;;;;;;0.40;0.40;;;;;;;2.18;73.70;97528.06;5024831;28;20146;-56
2023/02/18 03:49:46;;;;;;;0.40;0.40;;;;;;;2.24;73.42;97545.97;5025788;28;20053;-54
2023/02/18 03:52:13;;;;;;;0.40;0.40;;;;;;;2.24;72.93;97529.56;5026603;28;20057;-54
2023/02/18 03:54:40;;;;;;;0.40;0.40;;;;;;;2.23;73.65;97511.56;5026360;28;20116;-53
2023/02/18 03:57:07;;;;;;;0.30;0.30;;;;;;;2.20;73.39;97545.75;5025132;28;20060;-55
2023/02/18 03:59:34;;;;;;;0.38;0.38;;;;;;;2.19;74.27;97537.84;5025837;28;20053;-53
2023/02/18 04:02:01;;;;;;;0.40;0.40;;;;;;;2.22;73.12;97520.84;5024152;28;20092;-56
2023/02/18 04:04:28;;;;;;;0.40;0.40;;;;;;;1.72;74.25;97456.34;5025807;28;20085;-54
2023/02/18 04:06:55;;;;;;;0.40;0.40;;;;;;;1.79;73.82;97484.06;5026407;28;20060;-56
2023/02/18 04:09:21;;;;;;;0.40;0.40;;;;;;;2.23;74.07;97536.16;5025846;28;20582;-54
2023/02/18 04:11:48;;;;;;;0.40;0.40;;;;;;;2.01;74.00;97493.13;5025948;28;20049;-56
2023/02/18 04:14:15;;;;;;;0.40;0.40;;;;;;;2.33;73.95;97527.72;5025648;28;20443;-56
2023/02/18 04:16:41;;;;;;;0.32;0.32;;;;;;;2.24;73.40;97518.63;5026204;28;20483;-55
2023/02/18 04:19:08;;;;;;;0.40;0.40;;;;;;;2.39;73.42;97505.44;5026303;28;20136;-54
2023/02/18 04:21:35;;;;;;;0.40;0.40;;;;;;;2.30;73.30;97525.59;5025885;28;20057;-54
2023/02/18 04:24:01;;;;;;;0.40;0.40;;;;;;;2.41;73.24;97521.53;5025178;28;20053;-56
2023/02/18 04:26:28;;;;;;;0.40;0.40;;;;;;;2.45;73.25;97525.28;5024888;28;20057;-53
2023/02/18 04:28:55;;;;;;;0.30;0.30;;;;;;;2.52;73.51;97498.31;5025441;28;20590;-57
2023/02/18 04:31:21;;;;;;;0.40;0.40;;;;;;;2.04;73.78;97525.31;5025069;28;20160;-56
2023/02/18 04:33:48;;;;;;;0.40;0.40;;;;;;;1.88;73.31;97383.91;5025556;28;20159;-53
2023/02/18 04:36:15;;;;;;;0.40;0.40;;;;;;;2.31;73.09;97458.91;5025567;28;20085;-54
2023/02/18 04:38:42;;;;;;;0.40;0.40;;;;;;;2.49;73.53;97488.00;5025427;28;20111;-54
2023/02/18 04:41:08;;;;;;;0.40;0.40;;;;;;;2.17;73.11;97420.66;5024406;28;20054;-54
2023/02/18 04:43:35;;;;;;;0.40;0.40;;;;;;;2.64;73.54;97490.41;5025049;28;20119;-56
2023/02/18 04:46:01;;;;;;;0.40;0.40;;;;;;;2.38;72.92;97431.94;5023681;28;20570;-57
2023/02/18 04:48:29;;;;;;;0.40;0.40;;;;;;;2.80;72.71;97488.91;5025437;28;20062;-53
2023/02/18 04:50:55;;;;;;;0.40;0.40;;;;;;;2.95;72.10;97480.34;5025246;28;20160;-54
2023/02/18 04:53:22;;;;;;;0.40;0.40;;;;;;;2.23;75.19;97462.38;5023082;28;20049;-54
2023/02/18 04:55:52;;;;;;;0.40;0.40;;;;;;;2.33;75.89;97462.94;5023188;28;20315;-55
2023/02/18 04:58:20;;;;;;;0.40;0.40;;;;;;;2.45;73.83;97455.00;5023704;28;20516;-55
2023/02/18 05:00:47;;;;;;;0.40;0.40;;;;;;;2.30;73.72;97440.88;5024823;28;20089;-57
2023/02/18 05:03:14;;;;;;;0.40;0.40;;;;;;;2.64;74.00;97474.00;5024397;28;20077;-56
2023/02/18 05:05:40;;;;;;;0.40;0.40;;;;;;;2.71;73.86;97468.91;5024760;28;20076;-54
2023/02/18 05:08:07;;;;;;;0.40;0.40;;;;;;;2.82;73.91;97456.59;5023970;28;20056;-54
2023/02/18 05:10:34;;;;;;;0.40;0.40;;;;;;;2.79;73.10;97455.31;5024916;28;20057;-55
2023/02/18 05:13:00;;;;;;;0.40;0.40;;;;;;;2.95;72.96;97469.41;5024082;28;20103;-56
2023/02/18 05:15:27;;;;;;;0.40;0.40;;;;;;;3.05;72.30;97485.59;5024969;28;20401;-56
2023/02/18 05:17:54;;;;;;;0.40;0.40;;;;;;;2.62;73.75;97448.88;5025600;28;20136;-54
2023/02/18 05:20:20;;;;;;;0.40;0.40;;;;;;;3.01;73.40;97479.09;5023323;28;20144;-56
2023/02/18 05:22:47;;;;;;;0.40;0.40;;;;;;;3.15;72.67;97479.06;5023010;28;20076;-54
2023/02/18 05:25:14;;;;;;;0.40;0.40;;;;;;;3.29;72.30;97488.00;5024342;28;20072;-57
2023/02/18 05:27:40;;;;;;;0.40;0.40;;;;;;;3.37;72.39;97493.50;5023664;28;20517;-57
2023/02/18 05:30:07;;;;;;;0.40;0.40;;;;;;;3.56;71.37;97496.03;5023364;28;20080;-58
2023/02/18 05:32:34;;;;;;;0.40;0.40;;;;;;;3.53;71.43;97493.91;5024483;28;20057;-57
2023/02/18 05:35:01;;;;;;;0.40;0.40;;;;;;;3.40;72.08;97481.94;5023574;28;20481;-55
2023/02/18 05:37:27;;;;;;;0.40;0.40;;;;;;;3.61;71.30;97496.72;5024232;28;20061;-56
2023/02/18 05:39:54;;;;;;;0.50;0.50;;;;;;;3.62;70.91;97500.28;5024153;28;20508;-56
2023/02/18 05:42:22;;;;;;;0.40;0.40;;;;;;;3.75;70.84;97494.69;5024163;28;20106;-56
2023/02/18 05:44:48;;;;;;;0.40;0.40;;;;;;;3.76;70.46;97507.25;5023642;28;20053;-56
2023/02/18 05:47:15;;;;;;;0.40;0.40;;;;;;;3.75;71.38;97511.13;5024666;28;20046;-57
2023/02/18 05:49:42;;;;;;;0.40;0.40;;;;;;;3.64;71.52;97498.81;5044599;28;20065;-54
2023/02/18 05:52:09;;;;;;;0.40;0.40;;;;;;;3.83;71.54;97491.19;5044097;28;20057;-55
2023/02/18 05:54:37;;;;;;;0.40;0.40;;;;;;;3.85;70.63;97499.09;5023590;28;20072;-54
2023/02/18 05:57:04;;;;;;;0.40;0.40;;;;;;;3.44;70.96;97425.44;5024068;28;20150;-55
2023/02/18 05:59:31;;;;;;;0.43;0.43;;;;;;;3.54;70.12;97416.13;5023915;28;20057;-57
2023/02/18 06:01:58;;;;;;;0.40;0.40;;;;;;;4.09;69.67;97483.88;5023965;28;20075;-54
2023/02/18 06:04:24;;;;;;;0.40;0.40;;;;;;;3.78;69.79;97411.06;5023866;28;20053;-56
2023/02/18 06:06:51;;;;;;;0.40;0.40;;;;;;;4.21;69.41;97464.88;5023666;28;20479;-54
2023/02/18 06:09:18;;;;;;;0.40;0.40;;;;;;;4.46;69.29;97477.00;5021886;28;20053;-55
2023/02/18 06:11:44;;;;;;;0.50;0.50;;;;;;;4.40;69.14;97478.28;5023845;28;20140;-56
2023/02/18 06:14:11;;;;;;;0.40;0.40;;;;;;;4.31;69.40;97474.72;5024079;28;20077;-54
2023/02/18 06:16:38;;;;;;;0.40;0.40;;;;;;;4.58;68.06;97467.00;5023455;28;20107;-54
2023/02/18 06:19:04;;;;;;;0.40;0.40;;;;;;;4.51;67.83;97442.00;5022626;28;20045;-54
2023/02/18 06:21:31;;;;;;;0.50;0.50;;;;;;;4.62;68.22;97443.31;5023624;28;20507;-57
2023/02/18 06:23:58;;;;;;;0.40;0.40;;;;;;;5.01;67.33;97472.50;5022311;28;20077;-55
2023/02/18 06:26:25;;;;;;;0.50;0.50;;;;;;;4.78;66.68;97382.44;5023473;28;20061;-55
2023/02/18 06:28:51;;;;;;;0.50;0.50;;;;;;;5.49;66.05;97447.53;5022805;28;20180;-55
2023/02/18 06:31:18;;;;;;;0.50;0.50;;;;;;;5.69;65.34;97435.88;5038526;28;20061;-56
2023/02/18 06:33:45;;;;;;;0.50;0.50;;;;;;;5.62;65.01;97410.81;5031099;28;20471;-54
2023/02/18 06:36:12;;;;;;;0.50;0.50;;;;;;;5.98;64.63;97453.22;5023586;28;20096;-55
2023/02/18 06:38:41;;;;;;;0.50;0.50;;;;;;;6.21;63.34;97434.50;5022490;28;20053;-57
2023/02/18 06:41:08;;;;;;;0.50;0.50;;;;;;;5.40;69.48;97441.28;5023346;28;20049;-55
2023/02/18 06:43:35;;;;;;;0.50;0.50;;;;;;;5.51;71.30;97443.34;5022202;28;20151;-57
2023/02/18 06:46:03;;;;;;;0.47;0.47;;;;;;;5.61;68.32;97390.00;5023413;28;20432;-56
2023/02/18 06:48:30;;;;;;;0.50;0.50;;;;;;;6.25;66.29;97440.13;5023481;28;20049;-56
2023/02/18 06:50:57;;;;;;;0.50;0.50;;;;;;;5.57;70.84;97452.22;5026408;28;20053;-55
2023/02/18 06:53:24;;;;;;;0.50;0.50;;;;;;;5.41;71.30;97465.66;5027612;28;20045;-57
2023/02/18 06:55:51;;;;;;;0.50;0.50;;;;;;;5.59;69.69;97427.97;5027762;28;20107;-57
2023/02/18 06:58:17;;;;;;;0.50;0.50;;;;;;;6.17;68.52;97450.03;5027356;28;20127;-58
2023/02/18 07:00:44;;;;;;;0.50;0.50;;;;;;;6.43;65.98;97453.47;5027712;28;20077;-57
2023/02/18 07:03:14;;;;;;;0.50;0.50;;;;;;;6.47;65.63;97443.38;5026406;28;20045;-58
2023/02/18 07:05:41;;;;;;;0.50;0.50;;;;;;;6.55;65.97;97428.75;5027436;28;20111;-56
2023/02/18 07:08:08;;;;;;;0.60;0.60;;;;;;;6.74;64.76;97407.09;5026976;28;20049;-57
2023/02/18 07:10:35;;;;;;;0.60;0.60;;;;;;;7.07;64.36;97437.41;5027311;28;20107;-59
2023/02/18 07:13:02;;;;;;;0.55;0.55;;;;;;;6.71;63.72;97333.44;5033550;28;20084;-57
2023/02/18 07:15:28;;;;;;;0.60;0.60;;;;;;;7.31;63.45;97410.75;5026987;28;20052;-57
2023/02/18 07:17:55;;;;;;;0.60;0.60;;;;;;;5.11;62.20;97029.34;5026870;28;20065;-55
2023/02/18 07:20:22;;;;;;;0.63;0.63;;;;;;;7.84;60.78;97414.53;5026972;28;20049;-55
2023/02/18 07:22:49;;;;;;;0.60;0.60;;;;;;;7.71;62.80;97425.53;5026302;28;20053;-56
2023/02/18 07:25:16;;;;;;;0.60;0.60;;;;;;;7.20;64.08;97346.22;5035318;28;20130;-56
2023/02/18 07:27:42;;;;;;;0.70;0.70;;;;;;;8.31;61.19;97401.91;5031855;28;20045;-58
2023/02/18 07:30:09;;;;;;;0.70;0.70;;;;;;;8.29;60.20;97365.56;5039738;28;20134;-59
2023/02/18 07:32:36;;;;;;;0.70;0.70;;;;;;;7.66;64.36;97406.47;5029692;28;20136;-55
2023/02/18 07:35:04;;;;;;;0.60;0.60;;;;;;;7.43;65.12;97408.03;5024680;28;20115;-55
2023/02/18 07:37:32;;;;;;;0.55;0.55;;;;;;;7.86;62.27;97402.00;5024132;28;20049;-57
2023/02/18 07:39:58;;;;;;;0.60;0.60;;;;;;;8.00;61.09;97418.22;5018553;28;20132;-57
2023/02/18 07:42:25;;;;;;;0.60;0.60;;;;;;;7.30;63.72;97411.88;5018512;28;20474;-56
2023/02/18 07:44:52;;;;;;;0.60;0.60;;;;;;;7.27;66.75;97426.34;5024474;28;20487;-57
2023/02/18 07:47:18;;;;;;;0.60;0.60;;;;;;;7.33;68.53;97430.47;5025146;28;20087;-58
2023/02/18 07:49:46;;;;;;;0.60;0.60;;;;;;;7.51;66.83;97417.31;5031548;28;20124;-58
2023/02/18 07:52:14;;;;;;;0.60;0.60;;;;;;;8.08;66.15;97414.53;5035113;28;20093;-57
2023/02/18 07:54:41;;;;;;;0.70;0.70;;;;;;;8.52;64.64;97410.84;5023150;28;20053;-55
2023/02/18 07:57:07;;;;;;;0.70;0.70;;;;;;;8.85;63.06;97416.97;5026823;28;20045;-54
2023/02/18 07:59:34;;;;;;;0.70;0.70;;;;;;;8.45;62.29;97314.00;5029510;28;20072;-59
2023/02/18 08:02:01;;;;;;;0.70;0.70;;;;;;;9.47;60.72;97406.09;5032542;28;20467;-55
2023/02/18 08:04:28;;;;;;;0.80;0.80;;;;;;;9.79;59.45;97413.28;5045230;28;20053;-53
2023/02/18 08:06:54;;;;;;;0.82;0.82;;;;;;;10.14;58.24;97403.13;5013100;28;20115;-56
2023/02/18 08:09:21;;;;;;;0.80;0.80;;;;;;;10.28;55.56;97361.94;5030667;28;20443;-57
2023/02/18 08:11:48;;;;;;;0.80;0.80;;;;;;;10.64;55.15;97400.34;5038650;28;20054;-58
2023/02/18 08:14:15;;;;;;;0.90;0.90;;;;;;;10.87;55.58;97396.88;5038603;28;20049;-56
2023/02/18 08:16:41;;;;;;;0.90;0.90;;;;;;;11.20;53.74;97388.84;5040397;28;20131;-55
2023/02/18 08:19:08;;;;;;;1.00;1.00;;;;;;;11.55;52.52;97392.31;5036389;28;20067;-55
2023/02/18 08:21:35;;;;;;;0.93;0.93;;;;;;;11.67;52.60;97356.09;5027832;28;20131;-55
2023/02/18 08:24:01;;;;;;;0.90;0.90;;;;;;;11.54;51.64;97376.84;5025106;28;20037;-57
2023/02/18 08:26:28;;;;;;;1.00;1.00;;;;;;;11.87;50.75;97374.31;5023732;28;20064;-57
2023/02/18 08:28:55;;;;;;;0.98;0.98;;;;;;;12.10;49.71;97372.31;5028602;28;20049;-56
2023/02/18 08:31:26;;;;;;;1.00;1.00;;;;;;;12.60;48.69;97391.34;5042860;28;20107;-54
2023/02/18 08:33:55;;;;;;;1.00;1.00;;;;;;;12.81;47.65;97374.97;5025086;28;20060;-57
2023/02/18 08:36:22;;;;;;;1.08;1.08;;;;;;;13.20;47.21;97386.59;5025948;28;20049;-58
2023/02/18 08:38:48;;;;;;;1.10;1.10;;;;;;;13.53;44.85;97389.41;5023131;28;20845;-56
2023/02/18 08:41:17;;;;;;;1.10;1.10;;;;;;;13.25;47.02;97375.97;5026359;28;20049;-57
2023/02/18 08:43:44;;;;;;;1.10;1.10;;;;;;;12.26;47.95;97364.63;5031047;28;20429;-56
2023/02/18 08:46:11;;;;;;;1.10;1.10;;;;;;;12.68;47.52;97370.81;5035611;28;20409;-57
2023/02/18 08:48:50;;;;;;;1.00;1.00;;;;;;;12.68;46.97;97311.63;5023683;28;20049;-60
2023/02/18 08:51:20;;;;;;;1.02;1.02;;;;;;;13.54;46.55;97360.38;5013960;28;20052;-61
2023/02/18 08:53:48;;;;;;;1.20;1.20;;;;;;;13.83;46.16;97358.69;5029692;28;20045;-54
2023/02/18 08:56:16;;;;;;;1.10;1.10;;;;;;;14.21;45.91;97363.78;5023300;28;20045;-56
2023/02/18 08:58:43;;;;;;;1.30;1.30;;;;;;;14.50;44.24;97343.31;5028545;28;20064;-57
2023/02/18 09:01:12;;;;;;;1.45;1.45;;;;;;;14.98;43.96;97358.75;4992481;28;20141;-58
2023/02/18 09:03:39;;;;;;;1.30;1.30;;;;;;;14.87;43.41;97347.50;5026763;28;20110;-57
2023/02/18 09:06:06;;;;;;;1.40;1.40;;;;;;;15.18;43.71;97351.66;5042091;28;20531;-54
2023/02/18 09:08:33;;;;;;;1.40;1.40;;;;;;;15.34;43.87;97340.94;5024410;28;20053;-57
2023/02/18 09:11:03;;;;;;;1.40;1.40;;;;;;;15.60;43.79;97340.63;5024961;28;20076;-54
2023/02/18 09:13:31;;;;;;;1.60;1.60;;;;;;;15.80;42.86;97318.72;5021464;28;20053;-56
2023/02/18 09:16:00;;;;;;;1.63;1.63;;;;;;;16.16;42.45;97334.31;5024487;28;20081;-56
2023/02/18 09:18:27;;;;;;;1.83;1.83;;;;;;;16.45;41.48;97322.72;5015091;28;20053;-58
2023/02/18 09:20:58;;;;;;;1.75;1.75;;;;;;;16.36;41.42;97255.22;5037340;28;20103;-56
2023/02/18 09:23:27;;;;;;;1.60;1.60;;;;;;;17.01;40.52;97312.59;5020261;28;20509;-57
2023/02/18 09:25:54;;;;;;;1.85;1.85;;;;;;;17.25;40.48;97306.88;5025064;28;20053;-58
2023/02/18 09:28:21;;;;;;;1.70;1.70;;;;;;;17.64;39.25;97295.50;5024752;28;20053;-56
2023/02/18 09:30:48;;;;;;;1.70;1.70;;;;;;;16.06;40.32;97237.31;5032083;28;20449;-56
2023/02/18 09:33:15;;;;;;;1.73;1.73;;;;;;;16.43;40.91;97305.53;5022067;28;20608;-55
2023/02/18 09:35:44;;;;;;;1.48;1.48;;;;;;;15.57;42.49;97293.94;5023551;28;20056;-58
2023/02/18 09:38:13;;;;;;;1.40;1.40;;;;;;;15.18;42.57;97302.22;5022295;28;20049;-60
2023/02/18 09:40:48;;;;;;;1.40;1.40;;;;;;;15.56;42.05;97295.16;5041499;28;20052;-59
2023/02/18 09:43:46;;;;;;;1.50;1.50;;;;;;;15.76;41.41;97290.00;5029537;28;20050;-56
2023/02/18 09:46:31;;;;;;;1.38;1.38;;;;;;;16.33;40.53;97283.97;5017308;28;20060;-55
2023/02/18 09:49:03;;;;;;;1.48;1.48;;;;;;;16.05;41.57;97286.81;5021414;28;20053;-56
2023/02/18 09:51:30;;;;;;;1.60;1.60;;;;;;;16.40;39.54;97247.63;5023399;28;20045;-59
2023/02/18 09:53:57;;;;;;;1.63;1.63;;;;;;;16.94;39.33;97290.22;5021046;28;20049;-56
2023/02/18 09:56:30;;;;;;;1.60;1.60;;;;;;;17.25;39.93;97272.47;5022363;28;20053;-56
2023/02/18 09:59:00;;;;;;;1.70;1.70;;;;;;;17.63;37.65;97271.47;5028529;28;20060;-58
2023/02/18 10:01:40;;;;;;;1.70;1.70;;;;;;;17.71;37.09;97273.03;5019966;28;20072;-59
2023/02/18 10:04:17;;;;;;;1.83;1.83;;;;;;;17.71;36.96;97273.03;5024558;28;20056;-55
2023/02/18 10:06:49;;;;;;;1.70;1.70;;;;;;;17.27;37.14;97209.28;5042711;28;20056;-57
2023/02/18 10:09:23;;;;;;;1.95;1.95;;;;;;;17.73;37.29;97260.22;5043670;28;20080;-58
2023/02/18 10:11:55;;;;;;;1.70;1.70;;;;;;;17.89;37.15;97256.88;5044329;28;20049;-58
2023/02/18 10:14:23;;;;;;;1.80;1.80;;;;;;;17.66;37.25;97214.63;5042690;28;20064;-59
2023/02/18 10:16:51;;;;;;;2.03;2.03;;;;;;;17.92;36.34;97216.81;5042842;28;20136;-58
2023/02/18 10:19:24;;;;;;;1.83;1.83;;;;;;;18.42;36.37;97262.81;5044224;28;20049;-58
2023/02/18 10:21:52;;;;;;;1.70;1.70;;;;;;;18.28;35.65;97223.66;5043806;28;20484;-55
2023/02/18 10:24:34;;;;;;;1.85;1.85;;;;;;;18.62;36.19;97257.41;5042984;28;20631;-55
2023/02/18 10:27:04;;;;;;;1.90;1.90;;;;;;;18.84;36.11;97267.97;5036752;28;20511;-55
2023/02/18 10:29:31;;;;;;;2.08;2.08;;;;;;;18.95;36.37;97240.56;5003631;28;20139;-59
2023/02/18 10:32:03;;;;;;;1.80;1.80;;;;;;;18.97;36.18;97259.78;5004085;28;20054;-57
2023/02/18 10:34:36;;;;;;;2.00;2.00;;;;;;;19.01;36.40;97255.75;5004319;28;20050;-56
2023/02/18 10:37:13;;;;;;;1.80;1.80;;;;;;;18.93;35.97;97259.84;5004319;28;20093;-55
2023/02/18 10:40:04;;;;;;;2.17;2.17;;;;;;;18.68;36.00;97250.94;5004200;28;20054;-55
2023/02/18 10:42:49;;;;;;;1.83;1.83;;;;;;;18.65;36.49;97250.97;5004140;28;20535;-55
2023/02/18 10:45:42;;;;;;;2.00;2.00;;;;;;;18.62;36.62;97255.38;5003652;28;20085;-60
2023/02/18 10:48:26;;;;;;;1.70;1.70;;;;;;;18.60;36.77;97245.81;5004122;28;20108;-58
2023/02/18 10:50:54;;;;;;;1.85;1.85;;;;;;;18.73;36.28;97258.88;5002274;28;20103;-57
2023/02/18 10:53:31;;;;;;;1.90;1.90;;;;;;;18.53;36.08;97224.22;5004010;28;20077;-55
2023/02/18 10:55:58;;;;;;;1.77;1.77;;;;;;;18.70;36.53;97226.03;5003710;28;20107;-58
2023/02/18 10:58:45;;;;;;;2.15;2.15;;;;;;;18.98;36.00;97245.34;5003925;28;20517;-56
2023/02/18 11:01:20;;;;;;;1.90;1.90;;;;;;;19.01;35.95;97243.69;5003522;28;20075;-58
2023/02/18 11:03:50;;;;;;;1.83;1.83;;;;;;;18.78;36.32;97221.91;5003705;28;20248;-57
2023/02/18 11:06:20;;;;;;;1.83;1.83;;;;;;;19.08;35.71;97249.22;5003578;28;20085;-57
2023/02/18 11:08:48;;;;;;;2.00;2.00;;;;;;;19.19;35.58;97239.44;5004096;28;20109;-56
2023/02/18 11:11:22;;;;;;;1.60;1.60;;;;;;;19.24;35.67;97232.53;5003649;28;20073;-58
2023/02/18 11:13:54;;;;;;;2.00;2.00;;;;;;;19.14;35.95;97234.28;5003631;28;20053;-58
2023/02/18 11:16:45;;;;;;;1.80;1.80;;;;;;;19.25;36.37;97226.50;5003430;28;20061;-56
2023/02/18 11:19:34;;;;;;;1.98;1.98;;;;;;;19.48;36.02;97223.81;5003478;28;20057;-55
2023/02/18 11:22:17;;;;;;;1.92;1.92;;;;;;;19.28;35.70;97163.88;5003820;28;20046;-56
2023/02/18 11:24:47;;;;;;;2.00;2.00;;;;;;;19.72;35.63;97215.41;5004088;28;20042;-56
2023/02/18 11:27:30;;;;;;;2.03;2.03;;;;;;;19.77;35.62;97201.69;5001751;28;20508;-58
2023/02/18 11:30:06;;;;;;;1.95;1.95;;;;;;;19.48;35.49;97183.66;5003777;28;20124;-56
2023/02/18 11:32:35;;;;;;;1.90;1.90;;;;;;;19.61;35.48;97209.16;5003431;28;20057;-58
2023/02/18 11:35:04;;;;;;;1.80;1.80;;;;;;;19.33;35.65;97205.56;5003611;28;20149;-56
2023/02/18 11:37:32;;;;;;;2.13;2.13;;;;;;;19.21;36.19;97189.25;5007135;28;20103;-56
2023/02/18 11:39:59;;;;;;;2.10;2.10;;;;;;;19.09;35.85;97170.19;5007091;28;20599;-57
2023/02/18 11:42:26;;;;;;;1.65;1.65;;;;;;;19.03;36.24;97204.78;5006718;28;20599;-58
2023/02/18 11:44:56;;;;;;;1.98;1.98;;;;;;;18.92;36.44;97193.66;5024040;28;20085;-57
2023/02/18 11:47:24;;;;;;;1.92;1.92;;;;;;;18.82;36.51;97191.81;5026561;28;20119;-60
2023/02/18 11:50:05;;;;;;;1.90;1.90;;;;;;;18.83;36.44;97182.16;5020213;28;20115;-57
2023/02/18 11:52:35;;;;;;;2.08;2.08;;;;;;;18.31;36.87;97116.25;5026244;28;20621;-55